createdAt,value
2017-08-24T00:00:34.820Z,9.40
2017-08-24T00:03:02.318Z,8.80
2017-08-24T00:05:29.802Z,8.93
2017-08-24T00:07:57.310Z,8.90
2017-08-24T00:10:24.807Z,9.40
2017-08-24T00:12:52.300Z,8.90
2017-08-24T00:15:19.787Z,8.77
2017-08-24T00:17:47.288Z,9.67
2017-08-24T00:20:14.773Z,9.50
2017-08-24T00:22:42.267Z,8.33
2017-08-24T00:25:09.750Z,8.23
2017-08-24T00:27:37.948Z,8.83
2017-08-24T00:30:05.429Z,8.37
2017-08-24T00:32:32.944Z,8.40
2017-08-24T00:35:00.420Z,8.47
2017-08-24T00:37:27.892Z,8.17
2017-08-24T00:39:55.392Z,8.73
2017-08-24T00:42:22.874Z,9.20
2017-08-24T00:44:50.373Z,8.10
2017-08-24T00:47:17.847Z,8.03
2017-08-24T00:49:45.345Z,6.70
2017-08-24T00:52:12.819Z,7.10
2017-08-24T00:54:40.321Z,6.80
2017-08-24T00:57:07.801Z,6.70
2017-08-24T00:59:35.301Z,5.67
2017-08-24T01:02:02.787Z,6.20
2017-08-24T01:04:30.281Z,5.80
2017-08-24T01:06:57.759Z,5.50
2017-08-24T01:09:25.247Z,6.23
2017-08-24T01:11:52.715Z,5.43
2017-08-24T01:14:20.211Z,5.70
2017-08-24T01:16:47.688Z,5.40
2017-08-24T01:19:15.181Z,5.73
2017-08-24T01:21:42.660Z,5.53
2017-08-24T01:24:10.156Z,6.17
2017-08-24T01:26:37.631Z,6.23
2017-08-24T01:29:05.128Z,5.73
2017-08-24T01:31:32.614Z,6.60
2017-08-24T01:34:00.108Z,6.10
2017-08-24T01:36:27.592Z,5.60
2017-08-24T01:38:55.063Z,5.93
2017-08-24T01:41:22.552Z,6.30
2017-08-24T01:43:50.031Z,5.87
2017-08-24T01:46:26.239Z,5.90
2017-08-24T01:48:53.720Z,6.33
2017-08-24T01:51:21.208Z,6.07
2017-08-24T01:53:48.688Z,5.90
2017-08-24T01:56:16.180Z,5.73
2017-08-24T01:58:43.655Z,6.63
2017-08-24T02:01:11.175Z,6.03
2017-08-24T02:03:38.651Z,6.60
2017-08-24T02:06:06.155Z,6.47
2017-08-24T02:08:33.636Z,7.20
2017-08-24T02:11:01.128Z,7.93
2017-08-24T02:13:28.604Z,6.80
2017-08-24T02:15:56.093Z,7.43
2017-08-24T02:18:23.568Z,6.53
2017-08-24T02:20:51.068Z,6.07
2017-08-24T02:23:18.544Z,7.13
2017-08-24T02:25:46.040Z,6.80
2017-08-24T02:28:13.510Z,6.40
2017-08-24T02:30:41.013Z,7.17
2017-08-24T02:33:08.492Z,6.60
2017-08-24T02:35:36.016Z,6.70
2017-08-24T02:38:03.491Z,5.77
2017-08-24T02:40:30.980Z,7.00
2017-08-24T02:42:58.472Z,7.57
2017-08-24T02:45:25.960Z,6.60
2017-08-24T02:47:53.463Z,8.20
2017-08-24T02:50:20.948Z,7.90
2017-08-24T02:52:48.451Z,8.50
2017-08-24T02:55:15.932Z,8.10
2017-08-24T02:57:43.428Z,8.37
2017-08-24T03:00:10.909Z,8.97
2017-08-24T03:02:38.407Z,8.83
2017-08-24T03:05:05.897Z,9.00
2017-08-24T03:07:33.402Z,8.37
2017-08-24T03:10:00.878Z,9.10
2017-08-24T03:12:28.368Z,8.30
2017-08-24T03:14:55.839Z,8.50
2017-08-24T03:17:23.339Z,9.83
2017-08-24T03:19:50.816Z,9.03
2017-08-24T03:22:18.308Z,8.40
2017-08-24T03:24:45.779Z,7.60
2017-08-24T03:27:13.274Z,9.50
2017-08-24T03:29:40.756Z,9.23
2017-08-24T03:32:08.255Z,8.37
2017-08-24T03:34:35.735Z,9.30
2017-08-24T03:37:03.232Z,9.07
2017-08-24T03:39:30.711Z,9.90
2017-08-24T03:41:58.192Z,9.63
2017-08-24T03:44:25.695Z,10.10
2017-08-24T03:46:53.172Z,10.20
2017-08-24T03:49:20.664Z,8.93
2017-08-24T03:51:48.158Z,9.53
2017-08-24T03:54:15.660Z,9.80
2017-08-24T03:56:43.147Z,10.50
2017-08-24T03:59:10.652Z,10.40
2017-08-24T04:01:38.135Z,9.87
2017-08-24T04:04:05.641Z,9.53
2017-08-24T04:06:33.140Z,9.90
2017-08-24T04:09:00.648Z,10.53
2017-08-24T04:11:28.129Z,9.80
2017-08-24T04:13:55.628Z,10.93
2017-08-24T04:16:23.111Z,12.63
2017-08-24T04:18:50.617Z,10.63
2017-08-24T04:21:18.101Z,13.20
2017-08-24T04:23:45.604Z,12.20
2017-08-24T04:26:13.087Z,11.70
2017-08-24T04:28:40.587Z,11.93
2017-08-24T04:31:08.068Z,12.60
2017-08-24T04:33:35.573Z,12.10
2017-08-24T04:36:03.170Z,12.03
2017-08-24T04:38:30.670Z,12.17
2017-08-24T04:40:58.167Z,12.37
2017-08-24T04:43:25.685Z,12.63
2017-08-24T04:45:53.171Z,13.50
2017-08-24T04:48:20.659Z,13.70
2017-08-24T04:50:48.160Z,12.97
2017-08-24T04:53:15.643Z,15.37
2017-08-24T04:55:43.150Z,11.93
2017-08-24T04:58:10.632Z,14.00
2017-08-24T05:00:38.137Z,14.27
2017-08-24T05:03:05.629Z,14.00
2017-08-24T05:05:33.132Z,13.50
2017-08-24T05:08:00.616Z,14.17
2017-08-24T05:10:28.120Z,14.33
2017-08-24T05:12:55.601Z,14.47
2017-08-24T05:15:23.099Z,14.13
2017-08-24T05:17:50.575Z,14.20
2017-08-24T05:20:18.079Z,12.73
2017-08-24T05:22:45.563Z,12.73
2017-08-24T05:25:13.075Z,13.57
2017-08-24T05:27:40.568Z,13.63
2017-08-24T05:30:08.080Z,14.17
2017-08-24T05:32:35.568Z,14.40
2017-08-24T05:35:03.076Z,14.23
2017-08-24T05:37:30.564Z,12.80
2017-08-24T05:39:58.051Z,12.17
2017-08-24T05:42:25.559Z,12.60
2017-08-24T05:44:53.049Z,12.23
2017-08-24T05:47:20.557Z,12.20
2017-08-24T05:49:48.043Z,11.80
2017-08-24T05:52:15.548Z,12.00
2017-08-24T05:54:43.032Z,11.77
2017-08-24T05:57:10.535Z,11.53
2017-08-24T05:59:38.026Z,11.60
2017-08-24T06:02:05.531Z,11.97
2017-08-24T06:04:33.007Z,10.93
2017-08-24T06:07:00.515Z,11.90
2017-08-24T06:09:27.997Z,11.63
2017-08-24T06:11:55.499Z,11.23
2017-08-24T06:14:22.991Z,11.80
2017-08-24T06:16:50.497Z,11.20
2017-08-24T06:19:17.983Z,11.00
2017-08-24T06:21:45.480Z,10.33
2017-08-24T06:24:13.271Z,11.03
2017-08-24T06:26:40.772Z,11.73
2017-08-24T06:29:08.256Z,12.10
2017-08-24T06:31:35.763Z,10.70
2017-08-24T06:34:03.248Z,10.80
2017-08-24T06:36:30.752Z,11.53
2017-08-24T06:38:58.240Z,10.53
2017-08-24T06:41:25.740Z,11.30
2017-08-24T06:43:53.219Z,11.50
2017-08-24T06:46:20.708Z,11.13
2017-08-24T06:48:48.204Z,10.53
2017-08-24T06:51:15.687Z,10.97
2017-08-24T06:53:43.201Z,11.07
2017-08-24T06:56:10.676Z,11.43
2017-08-24T06:58:38.180Z,11.77
2017-08-24T07:01:05.670Z,11.80
2017-08-24T07:03:33.177Z,12.23
2017-08-24T07:06:00.663Z,12.97
2017-08-24T07:08:28.170Z,11.77
2017-08-24T07:10:55.656Z,12.47
2017-08-24T07:13:23.160Z,12.60
2017-08-24T07:15:50.643Z,12.20
2017-08-24T07:18:18.151Z,12.33
2017-08-24T07:20:45.635Z,12.80
2017-08-24T07:23:13.131Z,12.70
2017-08-24T07:25:40.619Z,12.50
2017-08-24T07:28:08.136Z,14.80
2017-08-24T07:30:35.616Z,14.13
2017-08-24T07:33:03.123Z,13.83
2017-08-24T07:35:30.609Z,16.03
2017-08-24T07:37:58.875Z,15.33
2017-08-24T07:40:26.355Z,16.20
2017-08-24T07:42:53.865Z,15.77
2017-08-24T07:45:21.355Z,16.43
2017-08-24T07:47:48.839Z,16.03
2017-08-24T07:50:16.350Z,15.27
2017-08-24T07:52:43.823Z,14.47
2017-08-24T07:55:11.325Z,14.77
2017-08-24T07:57:38.811Z,13.03
2017-08-24T08:00:06.316Z,14.60
2017-08-24T08:02:33.804Z,14.33
2017-08-24T08:05:01.305Z,12.33
2017-08-24T08:07:28.783Z,12.53
2017-08-24T08:09:56.281Z,11.90
2017-08-24T08:12:23.760Z,11.77
2017-08-24T08:14:51.261Z,12.30
2017-08-24T08:17:18.744Z,11.47
2017-08-24T08:19:46.247Z,11.60
2017-08-24T08:22:13.731Z,11.97
2017-08-24T08:24:41.243Z,11.03
2017-08-24T08:27:08.733Z,11.60
2017-08-24T08:29:36.248Z,11.63
2017-08-24T08:32:03.728Z,11.47
2017-08-24T08:34:31.231Z,12.47
2017-08-24T08:36:58.707Z,11.23
2017-08-24T08:39:26.216Z,10.80
2017-08-24T08:41:53.711Z,10.97
2017-08-24T08:44:21.739Z,11.23
2017-08-24T08:46:49.228Z,12.63
2017-08-24T08:49:16.712Z,10.90
2017-08-24T08:51:44.211Z,10.17
2017-08-24T08:54:11.691Z,10.40
2017-08-24T08:56:39.190Z,10.33
2017-08-24T08:59:06.669Z,6.00
2017-08-24T09:01:34.160Z,5.63
2017-08-24T09:04:01.640Z,6.67
2017-08-24T09:06:29.139Z,6.60
2017-08-24T09:08:56.612Z,6.77
2017-08-24T09:11:24.108Z,6.20
2017-08-24T09:13:51.587Z,6.30
2017-08-24T09:16:19.087Z,6.90
2017-08-24T09:18:47.331Z,6.00
2017-08-24T09:21:14.828Z,6.57
2017-08-24T09:23:42.304Z,5.40
2017-08-24T09:26:09.804Z,8.67
2017-08-24T09:28:37.276Z,9.27
2017-08-24T09:31:04.767Z,6.70
2017-08-24T09:33:32.646Z,5.50
2017-08-24T09:36:00.148Z,5.50
2017-08-24T09:38:27.625Z,4.90
2017-08-24T09:40:55.104Z,3.63
2017-08-24T09:43:22.600Z,4.20
2017-08-24T09:45:50.080Z,2.83
2017-08-24T09:48:17.579Z,6.93
2017-08-24T09:50:45.072Z,3.23
2017-08-24T09:53:12.572Z,2.10
2017-08-24T09:55:40.048Z,1.60
2017-08-24T09:58:07.540Z,1.70
2017-08-24T10:00:35.020Z,1.63
2017-08-24T10:03:02.516Z,1.80
2017-08-24T10:05:29.998Z,1.77
2017-08-24T10:07:57.495Z,2.10
2017-08-24T10:10:24.981Z,2.13
2017-08-24T10:12:52.480Z,2.40
2017-08-24T10:15:19.960Z,9.60
2017-08-24T10:17:47.455Z,3.00
2017-08-24T10:20:14.928Z,2.80
2017-08-24T10:22:42.428Z,3.10
2017-08-24T10:25:09.908Z,2.40
2017-08-24T10:27:37.404Z,2.70
2017-08-24T10:30:04.938Z,2.07
2017-08-24T10:32:32.400Z,2.60
2017-08-24T10:34:59.884Z,2.37
2017-08-24T10:37:27.387Z,2.50
2017-08-24T10:39:54.868Z,1.83
2017-08-24T10:42:22.364Z,2.00
2017-08-24T10:44:49.868Z,2.10
2017-08-24T10:47:17.340Z,2.13
2017-08-24T10:49:44.827Z,2.00
2017-08-24T10:52:12.307Z,6.20
2017-08-24T10:54:39.808Z,5.87
2017-08-24T10:57:07.288Z,2.23
2017-08-24T10:59:34.783Z,1.90
2017-08-24T11:02:02.266Z,2.40
2017-08-24T11:04:29.764Z,2.90
2017-08-24T11:06:57.245Z,2.60
2017-08-24T11:09:24.743Z,2.57
2017-08-24T11:11:52.230Z,3.03
2017-08-24T11:14:19.744Z,3.10
2017-08-24T11:16:47.221Z,3.50
2017-08-24T11:19:14.722Z,3.23
2017-08-24T11:21:42.204Z,2.73
2017-08-24T11:24:09.700Z,3.50
2017-08-24T11:26:37.175Z,2.80
2017-08-24T11:29:04.685Z,3.10
2017-08-24T11:31:32.164Z,3.47
2017-08-24T11:33:59.660Z,3.10
2017-08-24T11:36:27.127Z,3.10
2017-08-24T11:38:54.643Z,2.60
2017-08-24T11:41:22.121Z,3.10
2017-08-24T11:43:49.595Z,3.40
2017-08-24T11:46:17.108Z,3.13
2017-08-24T11:48:44.589Z,2.90
2017-08-24T11:51:12.089Z,3.20
2017-08-24T11:53:39.568Z,3.00
2017-08-24T11:56:07.070Z,3.00
2017-08-24T11:58:34.548Z,3.40
2017-08-24T12:01:02.047Z,2.63
2017-08-24T12:03:29.520Z,3.00
2017-08-24T12:05:57.016Z,4.00
2017-08-24T12:08:24.504Z,10.90
2017-08-24T12:10:52.004Z,3.43
2017-08-24T12:13:19.490Z,3.30
2017-08-24T12:15:46.988Z,3.17
2017-08-24T12:18:14.460Z,2.67
2017-08-24T12:20:41.956Z,3.07
2017-08-24T12:23:09.443Z,2.83
2017-08-24T12:25:36.958Z,2.57
2017-08-24T12:28:05.208Z,2.87
2017-08-24T12:30:32.700Z,2.80
2017-08-24T12:33:00.191Z,3.10
2017-08-24T12:35:27.697Z,3.10
2017-08-24T12:37:55.180Z,3.17
2017-08-24T12:40:22.683Z,3.23
2017-08-24T12:42:50.165Z,3.07
2017-08-24T12:45:17.652Z,4.10
2017-08-24T12:47:45.168Z,6.80
2017-08-24T12:50:12.644Z,5.30
2017-08-24T12:52:40.139Z,2.90
2017-08-24T12:55:07.615Z,3.17
2017-08-24T12:57:35.117Z,2.83
2017-08-24T13:00:02.593Z,3.70
2017-08-24T13:02:30.087Z,2.93
2017-08-24T13:04:57.565Z,2.70
2017-08-24T13:07:25.063Z,3.10
2017-08-24T13:09:52.535Z,2.97
2017-08-24T13:12:20.034Z,2.83
2017-08-24T13:14:47.513Z,3.13
2017-08-24T13:17:15.012Z,2.50
2017-08-24T13:19:42.492Z,2.67
2017-08-24T13:22:09.988Z,2.47
2017-08-24T13:24:37.460Z,2.70
2017-08-24T13:27:04.960Z,2.67
2017-08-24T13:29:32.432Z,2.40
2017-08-24T13:31:59.943Z,2.47
2017-08-24T13:34:27.431Z,2.30
2017-08-24T13:36:54.932Z,2.63
2017-08-24T13:39:22.414Z,2.57
2017-08-24T13:41:49.907Z,2.77
2017-08-24T13:44:17.393Z,2.73
2017-08-24T13:46:44.905Z,6.57
2017-08-24T13:49:12.384Z,16.47
2017-08-24T13:51:39.860Z,3.57
2017-08-24T13:54:07.351Z,2.37
2017-08-24T13:56:34.847Z,2.10
2017-08-24T13:59:02.348Z,2.07
2017-08-24T14:01:29.836Z,2.03
2017-08-24T14:03:57.332Z,2.50
2017-08-24T14:06:24.812Z,2.20
2017-08-24T14:08:52.311Z,2.20
2017-08-24T14:11:19.800Z,2.20
2017-08-24T14:13:47.300Z,1.97
2017-08-24T14:16:14.828Z,1.80
2017-08-24T14:18:42.331Z,2.50
2017-08-24T14:21:09.811Z,2.83
2017-08-24T14:23:37.311Z,2.73
2017-08-24T14:26:04.787Z,2.50
2017-08-24T14:28:32.280Z,2.90
2017-08-24T14:30:59.761Z,2.33
2017-08-24T14:33:27.255Z,1.67
2017-08-24T14:35:54.744Z,3.10
2017-08-24T14:38:22.244Z,1.93
2017-08-24T14:40:49.720Z,2.40
2017-08-24T14:43:17.228Z,2.67
2017-08-24T14:45:44.728Z,2.77
2017-08-24T14:48:12.212Z,2.07
2017-08-24T14:50:39.713Z,2.27
2017-08-24T14:53:07.187Z,2.30
2017-08-24T14:55:34.685Z,2.20
2017-08-24T14:58:02.712Z,1.97
2017-08-24T15:00:30.208Z,1.50
2017-08-24T15:02:57.687Z,2.20
2017-08-24T15:05:25.188Z,2.00
2017-08-24T15:07:53.508Z,1.60
2017-08-24T15:10:21.008Z,1.70
2017-08-24T15:12:48.487Z,2.10
2017-08-24T15:15:16.029Z,7.80
2017-08-24T15:17:43.507Z,12.90
2017-08-24T15:20:11.004Z,4.00
2017-08-24T15:22:38.492Z,2.40
2017-08-24T15:25:05.991Z,2.17
2017-08-24T15:27:33.460Z,2.77
2017-08-24T15:30:00.956Z,1.80
2017-08-24T15:32:28.439Z,1.63
2017-08-24T15:34:55.935Z,1.93
2017-08-24T15:37:24.224Z,2.20
2017-08-24T15:39:55.257Z,1.60
2017-08-24T15:42:22.732Z,1.50
2017-08-24T15:44:50.227Z,2.20
2017-08-24T15:47:17.709Z,1.53
2017-08-24T15:49:45.189Z,1.80
2017-08-24T15:52:12.699Z,1.50
2017-08-24T15:54:40.185Z,3.57
2017-08-24T15:57:07.690Z,3.40
2017-08-24T15:59:35.176Z,1.57
2017-08-24T16:02:02.673Z,1.47
2017-08-24T16:04:30.152Z,1.40
2017-08-24T16:06:57.651Z,1.43
2017-08-24T16:09:25.128Z,1.60
2017-08-24T16:11:52.620Z,1.60
2017-08-24T16:14:20.101Z,1.60
2017-08-24T16:16:47.600Z,1.60
2017-08-24T16:19:15.083Z,1.80
2017-08-24T16:21:42.580Z,1.77
2017-08-24T16:24:10.056Z,1.50
2017-08-24T16:26:37.547Z,2.13
2017-08-24T16:29:05.026Z,1.70
2017-08-24T16:31:32.537Z,2.30
2017-08-24T16:34:00.013Z,1.50
2017-08-24T16:36:27.516Z,1.50
2017-08-24T16:38:54.996Z,1.80
2017-08-24T16:41:22.505Z,1.73
2017-08-24T16:43:49.984Z,1.60
2017-08-24T16:46:17.495Z,3.20
2017-08-24T16:48:44.995Z,27.70
2017-08-24T16:51:12.489Z,4.60
2017-08-24T16:53:39.997Z,2.93
2017-08-24T16:56:07.476Z,3.93
2017-08-24T16:58:34.984Z,3.93
2017-08-24T17:01:02.479Z,4.03
2017-08-24T17:03:29.996Z,4.27
2017-08-24T17:05:57.480Z,5.87
2017-08-24T17:08:24.992Z,2.37
2017-08-24T17:10:52.475Z,2.10
2017-08-24T17:13:19.984Z,2.00
2017-08-24T17:15:47.480Z,2.80
2017-08-24T17:18:14.980Z,2.50
2017-08-24T17:20:42.464Z,2.20
2017-08-24T17:23:09.974Z,2.77
2017-08-24T17:25:37.468Z,2.30
2017-08-24T17:28:04.973Z,1.90
2017-08-24T17:30:32.451Z,2.00
2017-08-24T17:32:59.951Z,1.60
2017-08-24T17:35:27.441Z,2.30
2017-08-24T17:37:54.948Z,4.60
2017-08-24T17:40:22.437Z,2.80
2017-08-24T17:42:49.952Z,8.63
2017-08-24T17:45:17.432Z,2.80
2017-08-24T17:47:44.943Z,2.60
2017-08-24T17:50:12.424Z,2.27
2017-08-24T17:52:39.908Z,2.53
2017-08-24T17:55:07.409Z,2.90
2017-08-24T17:57:34.892Z,1.80
2017-08-24T18:00:02.391Z,2.00
2017-08-24T18:02:33.626Z,1.97
2017-08-24T18:05:07.700Z,1.80
2017-08-24T18:07:35.198Z,2.10
2017-08-24T18:10:02.705Z,2.10
2017-08-24T18:12:30.240Z,37.77
2017-08-24T18:14:57.749Z,15.30
2017-08-24T18:17:25.228Z,8.30
2017-08-24T18:19:52.723Z,4.50
2017-08-24T18:22:20.207Z,3.97
2017-08-24T18:24:47.712Z,3.30
2017-08-24T18:27:15.200Z,3.50
2017-08-24T18:29:42.719Z,2.87
2017-08-24T18:32:10.205Z,3.33
2017-08-24T18:34:37.711Z,1.93
2017-08-24T18:37:05.195Z,3.20
2017-08-24T18:39:32.692Z,2.33
2017-08-24T18:42:00.179Z,2.20
2017-08-24T18:44:27.679Z,2.67
2017-08-24T18:46:55.187Z,2.00
2017-08-24T18:49:22.676Z,2.07
2017-08-24T18:51:50.165Z,3.30
2017-08-24T18:54:17.647Z,7.20
2017-08-24T18:56:45.162Z,11.03
2017-08-24T18:59:12.659Z,22.30
2017-08-24T19:01:40.185Z,6.53
2017-08-24T19:04:07.669Z,4.70
2017-08-24T19:06:35.163Z,4.50
2017-08-24T19:09:02.640Z,3.73
2017-08-24T19:11:30.140Z,4.77
2017-08-24T19:13:57.755Z,5.13
2017-08-24T19:16:25.275Z,4.43
2017-08-24T19:18:52.768Z,5.60
2017-08-24T19:21:20.268Z,3.80
2017-08-24T19:23:47.748Z,3.70
2017-08-24T19:26:15.243Z,3.70
2017-08-24T19:28:42.724Z,4.00
2017-08-24T19:31:10.224Z,3.10
2017-08-24T19:33:37.703Z,3.80
2017-08-24T19:36:05.203Z,4.33
2017-08-24T19:38:32.680Z,4.13
2017-08-24T19:41:00.177Z,4.10
2017-08-24T19:43:27.664Z,3.80
2017-08-24T19:45:55.160Z,3.70
2017-08-24T19:48:22.651Z,3.17
2017-08-24T19:50:50.168Z,3.37
2017-08-24T19:53:17.651Z,3.80
2017-08-24T19:55:45.153Z,4.40
2017-08-24T19:58:12.638Z,4.43
2017-08-24T20:00:40.115Z,3.87
2017-08-24T20:03:07.638Z,5.47
2017-08-24T20:05:35.146Z,4.70
2017-08-24T20:08:02.669Z,3.97
2017-08-24T20:10:30.183Z,3.90
2017-08-24T20:12:57.700Z,4.40
2017-08-24T20:15:25.196Z,3.57
2017-08-24T20:17:52.697Z,3.40
2017-08-24T20:20:20.177Z,3.70
2017-08-24T20:22:47.692Z,4.70
2017-08-24T20:25:15.172Z,4.67
2017-08-24T20:27:42.673Z,4.77
2017-08-24T20:30:10.156Z,4.77
2017-08-24T20:32:37.648Z,3.87
2017-08-24T20:35:05.137Z,4.43
2017-08-24T20:37:32.633Z,4.50
2017-08-24T20:40:00.122Z,5.70
2017-08-24T20:42:27.633Z,29.63
2017-08-24T20:44:55.122Z,14.53
2017-08-24T20:47:22.632Z,63.03
2017-08-24T20:49:50.127Z,9.93
2017-08-24T20:52:17.627Z,4.67
2017-08-24T20:54:45.115Z,5.07
2017-08-24T20:57:12.588Z,5.40
2017-08-24T20:59:40.080Z,5.23
2017-08-24T21:02:07.555Z,4.90
2017-08-24T21:04:35.052Z,4.27
2017-08-24T21:07:02.532Z,5.20
2017-08-24T21:09:30.028Z,3.20
2017-08-24T21:11:57.509Z,3.47
2017-08-24T21:14:25.003Z,3.00
2017-08-24T21:16:52.484Z,2.70
2017-08-24T21:19:19.972Z,2.70
2017-08-24T21:21:48.216Z,2.40
2017-08-24T21:24:15.714Z,3.37
2017-08-24T21:26:43.226Z,3.23
2017-08-24T21:29:10.727Z,3.10
2017-08-24T21:31:38.212Z,3.43
2017-08-24T21:34:05.707Z,2.60
2017-08-24T21:36:33.184Z,3.60
2017-08-24T21:39:00.680Z,2.60
2017-08-24T21:41:28.159Z,2.80
2017-08-24T21:43:55.656Z,2.37
2017-08-24T21:46:23.136Z,2.90
2017-08-24T21:48:50.631Z,2.60
2017-08-24T21:51:18.115Z,2.50
2017-08-24T21:53:45.612Z,2.57
2017-08-24T21:56:13.088Z,2.53
2017-08-24T21:58:40.584Z,2.97
2017-08-24T22:01:08.068Z,3.30
2017-08-24T22:03:35.575Z,2.67
2017-08-24T22:06:03.058Z,2.60
2017-08-24T22:08:30.551Z,2.77
2017-08-24T22:10:58.028Z,3.40
2017-08-24T22:13:25.515Z,3.00
2017-08-24T22:15:52.995Z,3.57
2017-08-24T22:18:20.488Z,3.10
2017-08-24T22:20:47.959Z,2.70
2017-08-24T22:23:15.436Z,2.97
2017-08-24T22:25:42.937Z,3.07
2017-08-24T22:28:10.415Z,3.10
2017-08-24T22:30:37.904Z,3.33
2017-08-24T22:33:05.380Z,3.23
2017-08-24T22:35:32.880Z,3.73
2017-08-24T22:38:00.352Z,2.70
2017-08-24T22:40:27.849Z,3.10
2017-08-24T22:42:55.324Z,3.00
2017-08-24T22:45:22.824Z,3.10
2017-08-24T22:47:50.304Z,2.97
2017-08-24T22:50:17.795Z,3.57
2017-08-24T22:52:45.271Z,3.97
2017-08-24T22:55:18.415Z,2.90
2017-08-24T22:57:51.512Z,3.10
2017-08-24T23:00:24.688Z,2.97
2017-08-24T23:02:57.867Z,3.03
2017-08-24T23:05:25.370Z,3.00
2017-08-24T23:07:53.752Z,3.47
2017-08-24T23:10:21.252Z,3.07
2017-08-24T23:12:48.736Z,2.53
2017-08-24T23:15:16.237Z,2.80
2017-08-24T23:17:43.716Z,3.80
2017-08-24T23:20:11.220Z,3.30
2017-08-24T23:22:38.696Z,3.27
2017-08-24T23:25:06.192Z,3.27
2017-08-24T23:27:33.670Z,2.97
2017-08-24T23:30:01.167Z,3.17
2017-08-24T23:32:28.643Z,3.40
2017-08-24T23:34:56.139Z,3.70
2017-08-24T23:37:23.610Z,3.40
2017-08-24T23:39:51.113Z,3.77
2017-08-24T23:42:18.595Z,3.60
2017-08-24T23:44:46.083Z,3.53
2017-08-24T23:47:13.563Z,3.63
2017-08-24T23:49:41.064Z,3.60
2017-08-24T23:52:08.539Z,3.93
2017-08-24T23:54:36.049Z,3.17
2017-08-24T23:57:03.527Z,3.40
2017-08-24T23:59:31.032Z,3.17
